Time;durP1;ratioP1;P1;durP2;ratioP2;P2;SDS_P1;SDS_P2;PMS_P1;PMS_P2;Temp;Humidity;BMP_temperature;BMP_pressure;BME280_temperature;BME280_humidity;BME280_pressure;Samples;Min_cycle;Max_cycle;Signal;HPM_P1;HPM_P2
2022/09/25 04:02:11;;;;;;;5.93;5.30;;;8.60;96.30;;;;;;5135780;23;20501;-78
2022/09/25 04:04:36;;;;;;;6.23;5.20;;;8.60;96.30;;;;;;4955930;28;20423;-78
2022/09/25 04:07:02;;;;;;;6.87;5.57;;;8.60;96.30;;;;;;4954468;28;20410;-78
2022/09/25 04:09:28;;;;;;;6.73;5.50;;;8.60;96.30;;;;;;4952802;28;20193;-78
2022/09/25 04:11:54;;;;;;;7.67;5.63;;;8.60;96.30;;;;;;4954390;28;20202;-80
2022/09/25 04:14:20;;;;;;;6.73;5.57;;;8.60;96.30;;;;;;4954465;28;20542;-79
2022/09/25 04:16:46;;;;;;;8.83;5.50;;;8.70;96.30;;;;;;4957293;28;20422;-79
2022/09/25 04:19:11;;;;;;;6.73;5.50;;;8.70;96.30;;;;;;4971831;28;20213;-78
2022/09/25 05:18:35;;;;;;;8.40;5.13;;;8.10;96.30;;;;;;5214853;23;20494;-81
2022/09/25 05:21:03;;;;;;;10.30;6.30;;;8.00;96.30;;;;;;4954785;28;20489;-81
2022/09/25 05:23:29;;;;;;;8.90;5.70;;;8.00;96.30;;;;;;4954551;28;20662;-82
2022/09/25 05:26:02;;;;;;;5.93;5.40;;;8.00;96.30;;;;;;4954996;28;20418;-82
2022/09/25 05:28:28;;;;;;;8.03;5.50;;;8.10;96.30;;;;;;4954305;28;20639;-81
2022/09/25 05:30:54;;;;;;;8.23;5.63;;;8.10;96.30;;;;;;4956958;28;20554;-81
2022/09/25 05:33:19;;;;;;;6.60;5.30;;;8.10;96.30;;;;;;4957040;29;20430;-82
2022/09/25 05:35:45;;;;;;;6.07;5.47;;;8.10;96.30;;;;;;4958606;28;20249;-81
2022/09/25 05:38:11;;;;;;;6.17;5.57;;;8.20;96.30;;;;;;4957801;28;20250;-82
2022/09/25 05:40:39;;;;;;;5.73;5.10;;;8.30;96.30;;;;;;4960200;28;20238;-82
2022/09/25 05:43:05;;;;;;;8.73;5.67;;;8.40;96.30;;;;;;4977658;28;20250;-81
2022/09/25 05:45:32;;;;;;;6.20;5.23;;;8.50;96.30;;;;;;4977228;28;20937;-81
2022/09/25 05:48:06;;;;;;;6.73;5.90;;;8.70;96.30;;;;;;4974824;28;20437;-81
2022/09/25 05:50:32;;;;;;;6.13;4.90;;;8.80;96.30;;;;;;4976895;28;20449;-81
2022/09/25 05:53:00;;;;;;;6.10;5.50;;;8.90;96.30;;;;;;4977297;28;20406;-82
2022/09/25 05:55:25;;;;;;;5.80;5.00;;;9.00;96.30;;;;;;4976413;28;20425;-81
2022/09/25 05:57:51;;;;;;;8.07;6.60;;;9.20;96.30;;;;;;4961278;28;20831;-78
2022/09/25 06:00:17;;;;;;;6.40;5.63;;;9.30;96.30;;;;;;4957037;28;20212;-79
2022/09/25 06:02:43;;;;;;;6.80;6.10;;;9.50;96.30;;;;;;4957587;29;20269;-78
2022/09/25 06:05:08;;;;;;;5.47;4.90;;;9.70;96.30;;;;;;4956820;28;20446;-79
2022/09/25 06:07:35;;;;;;;7.70;5.60;;;9.90;96.30;;;;;;4955460;29;20181;-79
2022/09/25 06:10:00;;;;;;;8.00;5.67;;;10.20;96.30;;;;;;4956230;28;20179;-79
2022/09/25 06:12:28;;;;;;;8.93;6.30;;;11.20;96.30;;;;;;4956495;28;20489;-81
2022/09/25 06:14:54;;;;;;;7.10;5.30;;;12.50;96.30;;;;;;4956604;28;20175;-81
2022/09/25 06:17:19;;;;;;;6.03;4.97;;;13.10;96.30;;;;;;4956475;28;20426;-78
2022/09/25 06:19:45;;;;;;;6.00;5.00;;;13.20;96.30;;;;;;4955929;28;20658;-80
2022/09/25 06:22:10;;;;;;;6.47;4.80;;;13.50;96.30;;;;;;4957089;28;20241;-82
2022/09/25 06:24:36;;;;;;;8.03;4.80;;;13.80;96.30;;;;;;4958840;28;20253;-81
2022/09/25 06:27:01;;;;;;;9.30;4.40;;;13.60;96.30;;;;;;4957558;28;20178;-81
2022/09/25 06:29:27;;;;;;;4.60;4.13;;;13.30;96.30;;;;;;4957540;28;20669;-80
2022/09/25 06:31:52;;;;;;;5.87;4.37;;;12.90;96.30;;;;;;4950393;28;20737;-79
2022/09/25 06:34:18;;;;;;;10.13;4.60;;;12.40;96.30;;;;;;4937556;29;20175;-80
2022/09/25 06:36:44;;;;;;;4.20;3.90;;;11.80;96.30;;;;;;4938845;29;20215;-80
2022/09/25 06:39:09;;;;;;;5.40;4.10;;;11.40;96.30;;;;;;4938391;29;20286;-80
2022/09/25 06:41:35;;;;;;;5.00;4.10;;;11.10;96.30;;;;;;4957417;28;20261;-80
2022/09/25 06:44:01;;;;;;;5.83;4.47;;;10.90;96.30;;;;;;4958825;28;20608;-79
2022/09/25 06:46:26;;;;;;;6.10;4.70;;;10.80;96.30;;;;;;4962966;28;20406;-80
2022/09/25 06:48:54;;;;;;;7.57;5.83;;;10.80;96.30;;;;;;4976261;28;20572;-79
2022/09/25 06:51:20;;;;;;;6.10;5.50;;;10.80;96.30;;;;;;4977114;28;20662;-79
2022/09/25 06:53:46;;;;;;;5.23;4.47;;;10.80;96.30;;;;;;4977109;28;20880;-80
2022/09/25 06:56:12;;;;;;;5.30;4.80;;;10.80;96.30;;;;;;4976352;28;20925;-80
2022/09/25 06:58:37;;;;;;;9.60;5.80;;;10.70;96.30;;;;;;4975738;28;20198;-80
2022/09/25 07:01:06;;;;;;;8.60;5.70;;;10.70;96.30;;;;;;4976249;28;20197;-80
2022/09/25 07:03:44;;;;;;;7.70;5.43;;;10.80;96.30;;;;;;4975624;28;20762;-79
2022/09/25 07:06:12;;;;;;;11.63;6.13;;;10.80;96.30;;;;;;4976427;28;20433;-80
2022/09/25 07:08:38;;;;;;;7.00;6.13;;;10.90;96.30;;;;;;4975562;28;20418;-79
2022/09/25 07:11:04;;;;;;;7.37;5.80;;;10.90;96.30;;;;;;4963052;28;20562;-78
2022/09/25 07:13:33;;;;;;;7.07;5.40;;;11.00;96.30;;;;;;4956918;28;20415;-79
2022/09/25 07:16:06;;;;;;;6.43;4.80;;;11.10;96.30;;;;;;4955425;28;20644;-76
2022/09/25 07:18:32;;;;;;;8.23;5.20;;;11.10;96.30;;;;;;4956157;28;20998;-76
2022/09/25 07:21:05;;;;;;;5.83;4.30;;;11.10;96.30;;;;;;4955011;28;21193;-77
2022/09/25 07:23:32;;;;;;;5.40;4.90;;;11.10;96.30;;;;;;4952980;28;20779;-79
2022/09/25 07:26:27;;;;;;;10.80;5.10;;;11.30;96.30;;;;;;4957021;28;20887;-79
2022/09/25 07:28:53;;;;;;;6.13;4.60;;;11.40;96.30;;;;;;4952277;28;20422;-80
2022/09/25 07:31:21;;;;;;;4.77;4.10;;;11.60;96.30;;;;;;4955880;28;20446;-80
2022/09/25 07:33:47;;;;;;;5.20;4.70;;;11.70;96.30;;;;;;4957269;28;20414;-79
2022/09/25 07:36:14;;;;;;;7.63;4.80;;;11.80;96.30;;;;;;4957069;28;20426;-80
2022/09/25 07:38:40;;;;;;;6.20;5.10;;;11.80;96.30;;;;;;4955857;28;20277;-79
2022/09/25 07:41:09;;;;;;;6.00;4.70;;;11.90;96.30;;;;;;4962199;28;20444;-80
2022/09/25 07:43:37;;;;;;;7.53;5.07;;;12.10;96.30;;;;;;4976271;28;20421;-80
2022/09/25 07:46:03;;;;;;;10.50;5.27;;;12.30;96.30;;;;;;4975612;28;20476;-79
2022/09/25 07:48:29;;;;;;;5.77;4.60;;;12.60;96.30;;;;;;4973927;28;20523;-77
2022/09/25 07:50:59;;;;;;;8.63;5.50;;;13.00;96.30;;;;;;4968773;28;20438;-77
2022/09/25 07:53:24;;;;;;;6.07;4.50;;;13.50;96.30;;;;;;4954549;28;20422;-78
2022/09/25 07:55:50;;;;;;;6.00;5.13;;;13.90;96.30;;;;;;4955535;28;20426;-78
2022/09/25 07:58:18;;;;;;;4.70;4.30;;;14.10;96.30;;;;;;4954933;28;20270;-77
2022/09/25 08:00:44;;;;;;;5.23;4.73;;;14.10;96.30;;;;;;4955699;28;20700;-80
2022/09/25 08:03:10;;;;;;;4.50;4.10;;;14.20;96.30;;;;;;4955870;28;20503;-77
2022/09/25 08:05:36;;;;;;;6.47;4.73;;;14.40;96.30;;;;;;4955158;28;20171;-77
2022/09/25 08:08:01;;;;;;;4.80;4.40;;;14.20;96.30;;;;;;4955055;28;20477;-77
2022/09/25 08:10:27;;;;;;;8.80;4.67;;;14.00;96.30;;;;;;4951336;28;20242;-78
2022/09/25 08:12:53;;;;;;;6.67;4.60;;;14.30;96.30;;;;;;4955648;28;20187;-77
2022/09/25 08:15:18;;;;;;;4.87;4.37;;;14.50;96.30;;;;;;4954009;28;20242;-78
2022/09/25 08:17:43;;;;;;;5.60;4.40;;;14.80;96.30;;;;;;4956351;28;20710;-76
2022/09/25 08:20:09;;;;;;;6.20;4.80;;;14.90;96.30;;;;;;4955080;29;20178;-78
2022/09/25 08:22:35;;;;;;;4.80;4.10;;;14.90;96.30;;;;;;4954632;29;20620;-77
2022/09/25 08:25:03;;;;;;;4.47;4.07;;;14.80;96.30;;;;;;4953754;28;20222;-77
2022/09/25 08:27:30;;;;;;;5.20;4.20;;;14.60;96.30;;;;;;4953134;28;20538;-79
2022/09/25 08:29:56;;;;;;;4.97;4.57;;;15.00;96.30;;;;;;4951784;28;20407;-77
2022/09/25 08:32:21;;;;;;;6.53;4.53;;;15.90;96.30;;;;;;4955908;28;20818;-78
2022/09/25 08:34:47;;;;;;;9.43;4.37;;;17.00;96.30;;;;;;4956008;28;20627;-80
2022/09/25 08:37:14;;;;;;;6.13;4.20;;;17.50;96.30;;;;;;4953628;29;20187;-80
2022/09/25 08:39:39;;;;;;;7.40;5.10;;;18.10;96.30;;;;;;4955010;28;20469;-78
2022/09/25 08:42:05;;;;;;;4.20;3.80;;;18.30;96.30;;;;;;4969193;28;20449;-78
2022/09/25 08:44:41;;;;;;;11.33;4.63;;;18.50;96.30;;;;;;4974164;28;20807;-80
2022/09/25 08:50:23;;;;;;;6.43;5.10;;;20.20;96.30;;;;;;4938359;29;20479;-78
2022/09/25 08:53:03;;;;;;;4.97;4.47;;;20.30;96.30;;;;;;4941698;29;20424;-80
2022/09/25 08:58:25;;;;;;;7.33;5.63;;;20.80;96.30;;;;;;4948391;29;20486;-80
2022/09/25 09:00:57;;;;;;;5.73;4.50;;;20.30;96.30;;;;;;4936817;29;20928;-81
2022/09/25 09:03:24;;;;;;;5.10;4.33;;;21.50;96.30;;;;;;4937794;28;20963;-80
2022/09/25 09:06:06;;;;;;;7.60;4.63;;;21.40;95.50;;;;;;4937794;29;20426;-81
2022/09/25 09:08:35;;;;;;;8.83;4.77;;;21.30;96.30;;;;;;4938762;29;20494;-79
2022/09/25 09:11:12;;;;;;;6.57;4.93;;;21.60;96.30;;;;;;4938816;29;20454;-80
2022/09/25 09:13:56;;;;;;;6.50;4.53;;;21.30;96.30;;;;;;4950644;29;20509;-77
2022/09/25 09:16:45;;;;;;;10.17;5.47;;;21.40;96.00;;;;;;4954384;28;20421;-78
2022/09/25 09:19:11;;;;;;;5.20;4.80;;;22.20;93.00;;;;;;4949238;29;20979;-77
2022/09/25 09:21:38;;;;;;;6.27;5.50;;;22.70;94.50;;;;;;4956590;28;20442;-80
2022/09/25 09:24:03;;;;;;;6.63;5.57;;;22.40;90.40;;;;;;4944832;28;20423;-77
2022/09/25 09:26:36;;;;;;;5.20;4.70;;;22.20;91.10;;;;;;4938837;29;20904;-80
2022/09/25 09:29:13;;;;;;;5.50;5.00;;;22.50;88.80;;;;;;4950348;28;20227;-80
2022/09/25 09:31:58;;;;;;;6.30;5.13;;;21.60;91.70;;;;;;4949857;29;20437;-80
2022/09/25 09:34:29;;;;;;;6.13;4.50;;;21.20;94.40;;;;;;4949262;29;20414;-80
2022/09/25 09:37:03;;;;;;;7.00;5.63;;;20.90;93.80;;;;;;4948110;28;20414;-80
2022/09/25 09:40:00;;;;;;;6.60;5.07;;;22.10;93.20;;;;;;4948292;29;20467;-80
2022/09/25 09:43:03;;;;;;;6.07;4.63;;;22.50;93.50;;;;;;4950025;28;20463;-80
2022/09/25 09:45:43;;;;;;;5.47;4.67;;;22.70;89.00;;;;;;4949340;29;20475;-80
2022/09/25 09:48:28;;;;;;;6.30;5.07;;;23.10;91.20;;;;;;4956706;28;20434;-80
2022/09/25 09:51:29;;;;;;;7.87;4.83;;;23.50;90.80;;;;;;4967101;28;20975;-80
2022/09/25 09:54:09;;;;;;;5.23;4.73;;;22.30;90.90;;;;;;4945218;29;20429;-80
2022/09/25 09:56:35;;;;;;;7.07;5.30;;;22.20;92.50;;;;;;4941445;29;20399;-80
2022/09/25 09:59:05;;;;;;;7.30;3.73;;;23.10;92.70;;;;;;4941436;29;20459;-80
2022/09/25 10:01:36;;;;;;;9.07;4.40;;;23.60;92.20;;;;;;4941650;29;20435;-80
2022/09/25 10:04:13;;;;;;;5.00;4.00;;;23.80;91.70;;;;;;4954465;29;20421;-80
2022/09/25 10:07:04;;;;;;;6.37;4.07;;;23.30;90.70;;;;;;4951610;28;20413;-79
2022/09/25 10:09:30;;;;;;;5.43;4.93;;;23.20;88.80;;;;;;4966719;28;20505;-80
2022/09/25 10:12:20;;;;;;;4.17;3.80;;;22.90;90.30;;;;;;4979219;28;20465;-80
2022/09/25 10:14:47;;;;;;;5.57;4.87;;;22.50;90.80;;;;;;4977358;28;20186;-80
2022/09/25 10:17:14;;;;;;;5.13;3.63;;;22.50;89.70;;;;;;4977404;28;20432;-80
2022/09/25 10:19:55;;;;;;;8.50;4.20;;;22.50;88.60;;;;;;4977076;28;20461;-78
2022/09/25 10:22:25;;;;;;;5.67;4.70;;;22.40;90.30;;;;;;4978840;28;20483;-80
2022/09/25 10:25:01;;;;;;;7.80;4.57;;;22.60;88.40;;;;;;4978935;28;20398;-80
2022/09/25 10:27:36;;;;;;;7.73;4.97;;;22.60;90.50;;;;;;4978273;28;20417;-80
2022/09/25 10:30:02;;;;;;;11.33;4.63;;;21.90;92.80;;;;;;4963173;28;20429;-77
2022/09/25 10:32:29;;;;;;;4.67;4.27;;;22.10;91.90;;;;;;4961016;28;20438;-79
2022/09/25 10:34:55;;;;;;;5.07;4.53;;;21.80;94.90;;;;;;4964905;28;20194;-80
2022/09/25 10:37:21;;;;;;;7.07;4.47;;;21.80;91.40;;;;;;4960117;28;20425;-80
2022/09/25 10:40:21;;;;;;;6.93;4.83;;;21.50;93.20;;;;;;4957744;28;20762;-76
2022/09/25 10:42:47;;;;;;;5.73;4.50;;;21.60;95.10;;;;;;4938960;29;20410;-76
2022/09/25 10:45:29;;;;;;;4.93;4.03;;;21.40;95.10;;;;;;4937844;29;20415;-77
2022/09/25 10:50:39;;;;;;;13.33;5.63;;;20.30;96.00;;;;;;4940131;29;20450;-79
2022/09/25 10:53:06;;;;;;;5.83;5.00;;;20.30;96.30;;;;;;4954099;29;20906;-78
2022/09/25 10:55:35;;;;;;;6.83;4.20;;;20.10;96.30;;;;;;4955931;28;20178;-77
2022/09/25 10:58:17;;;;;;;5.30;4.50;;;19.40;96.30;;;;;;4954357;28;20506;-77
2022/09/25 11:00:54;;;;;;;6.30;4.17;;;19.50;96.30;;;;;;4956381;28;20926;-77
2022/09/25 11:03:29;;;;;;;4.73;4.30;;;20.20;96.30;;;;;;4955488;28;20445;-76
2022/09/25 11:05:58;;;;;;;5.50;4.63;;;20.90;94.60;;;;;;4947328;28;20405;-79
2022/09/25 11:08:29;;;;;;;4.80;4.20;;;20.80;95.30;;;;;;4976116;28;20421;-77
2022/09/25 11:10:57;;;;;;;5.50;4.07;;;20.90;96.20;;;;;;4974875;28;20434;-76
2022/09/25 11:13:35;;;;;;;5.10;3.97;;;20.90;96.30;;;;;;4977125;28;20838;-79
2022/09/25 11:16:03;;;;;;;4.23;3.80;;;20.90;96.30;;;;;;4977910;28;20413;-79
2022/09/25 11:18:44;;;;;;;4.70;4.03;;;20.50;96.30;;;;;;4978747;28;20953;-80
2022/09/25 11:21:24;;;;;;;10.13;4.33;;;20.40;96.30;;;;;;4978167;28;20445;-80
2022/09/25 11:24:06;;;;;;;6.50;4.40;;;20.10;96.30;;;;;;4979364;28;20405;-77
2022/09/25 11:26:37;;;;;;;7.07;4.50;;;20.30;96.30;;;;;;4974382;28;20417;-78
2022/09/25 11:29:32;;;;;;;6.30;4.57;;;20.20;96.30;;;;;;4973674;28;20464;-77
2022/09/25 11:32:33;;;;;;;5.33;4.40;;;20.00;95.00;;;;;;4958476;28;20453;-76
2022/09/25 11:35:20;;;;;;;4.93;3.67;;;20.30;96.30;;;;;;4970104;28;20795;-75
2022/09/25 11:38:07;;;;;;;5.30;3.63;;;20.90;96.30;;;;;;4964291;28;20482;-78
2022/09/25 11:44:04;;;;;;;6.10;4.27;;;21.70;94.80;;;;;;4956414;29;20410;-75
2022/09/25 11:46:47;;;;;;;3.83;3.53;;;22.20;95.90;;;;;;4959830;28;20442;-77
2022/09/25 11:49:27;;;;;;;5.23;3.33;;;21.50;90.00;;;;;;4957054;28;20454;-76
2022/09/25 11:52:25;;;;;;;4.13;3.70;;;21.90;91.90;;;;;;4955336;28;20438;-77
2022/09/25 11:55:00;;;;;;;4.13;3.80;;;20.60;91.90;;;;;;4955556;28;20419;-76
2022/09/25 11:57:33;;;;;;;4.90;4.40;;;20.60;93.80;;;;;;4954874;28;20410;-75
2022/09/25 12:00:03;;;;;;;5.90;3.93;;;20.80;94.50;;;;;;4954875;28;20435;-76
2022/09/25 12:02:52;;;;;;;4.37;3.50;;;20.80;96.30;;;;;;4954192;28;20465;-77
2022/09/25 12:05:49;;;;;;;7.07;4.33;;;20.50;93.50;;;;;;4954703;28;20414;-75
2022/09/25 12:08:51;;;;;;;5.40;4.10;;;20.00;96.30;;;;;;4952187;29;20422;-78
2022/09/25 12:11:44;;;;;;;3.80;3.50;;;19.80;96.30;;;;;;4961550;28;20488;-79
2022/09/25 12:14:21;;;;;;;5.20;4.33;;;20.00;96.30;;;;;;4963577;28;20468;-75
2022/09/25 12:17:03;;;;;;;4.57;4.17;;;20.40;96.30;;;;;;4957276;28;20469;-76
2022/09/25 12:20:03;;;;;;;5.43;4.73;;;20.40;96.30;;;;;;4955480;28;20437;-79
2022/09/25 12:22:37;;;;;;;4.27;3.87;;;20.70;95.90;;;;;;4956472;28;20422;-79
2022/09/25 12:25:18;;;;;;;5.80;4.00;;;20.80;94.80;;;;;;4955944;28;20415;-79
2022/09/25 12:28:23;;;;;;;3.93;3.63;;;21.10;96.30;;;;;;4956589;28;20414;-79
2022/09/25 12:31:18;;;;;;;4.17;3.87;;;21.60;96.30;;;;;;4957069;28;20426;-79
2022/09/25 12:34:16;;;;;;;13.80;3.70;;;21.80;96.10;;;;;;4957044;28;20417;-79
2022/09/25 12:36:48;;;;;;;5.70;3.07;;;21.40;91.50;;;;;;4956919;28;20418;-79
2022/09/25 12:40:04;;;;;;;6.17;3.83;;;21.00;93.00;;;;;;4956368;28;20982;-78
2022/09/25 12:42:38;;;;;;;4.57;3.60;;;21.30;94.90;;;;;;4933518;28;20442;-79
2022/09/25 12:45:22;;;;;;;4.90;3.90;;;21.10;94.50;;;;;;4956068;28;20800;-78
2022/09/25 12:48:00;;;;;;;5.20;3.50;;;20.80;95.30;;;;;;4955641;28;20407;-78
2022/09/25 12:50:32;;;;;;;8.87;3.60;;;20.70;96.30;;;;;;4955981;28;20455;-78
2022/09/25 12:53:03;;;;;;;5.40;3.83;;;20.60;96.30;;;;;;4955810;29;20513;-78
2022/09/25 12:55:44;;;;;;;4.90;3.77;;;20.80;96.30;;;;;;4954829;28;20421;-78
2022/09/25 12:58:28;;;;;;;5.00;3.37;;;20.80;95.10;;;;;;4955653;28;20545;-78
2022/09/25 13:01:01;;;;;;;4.83;3.47;;;20.80;96.30;;;;;;4955555;28;20449;-78
2022/09/25 13:03:43;;;;;;;4.50;4.10;;;19.80;95.70;;;;;;4955292;28;20883;-78
2022/09/25 13:06:34;;;;;;;6.73;3.50;;;18.90;96.30;;;;;;4955687;28;20494;-78
2022/09/25 13:09:36;;;;;;;5.40;3.90;;;18.70;96.30;;;;;;4954453;28;20431;-79
2022/09/25 13:12:14;;;;;;;6.63;3.37;;;18.40;96.30;;;;;;4955278;28;20426;-78
2022/09/25 13:14:48;;;;;;;6.23;3.60;;;18.30;96.30;;;;;;4955714;28;20402;-78
2022/09/25 13:17:14;;;;;;;9.07;4.10;;;18.10;96.30;;;;;;4954982;28;20418;-78
2022/09/25 13:19:40;;;;;;;4.23;3.90;;;17.80;96.30;;;;;;4955129;28;20458;-78
2022/09/25 13:22:18;;;;;;;3.97;3.67;;;17.50;96.30;;;;;;4954685;28;20546;-78
2022/09/25 13:24:51;;;;;;;4.07;3.67;;;17.30;96.30;;;;;;4954990;28;20182;-78
2022/09/25 13:27:22;;;;;;;4.60;4.20;;;17.20;96.30;;;;;;4955085;28;20438;-78
2022/09/25 13:29:57;;;;;;;4.20;3.80;;;17.20;96.30;;;;;;4954881;28;20432;-78
2022/09/25 13:32:30;;;;;;;4.07;3.73;;;17.20;96.30;;;;;;4954990;29;21127;-78
2022/09/25 13:35:01;;;;;;;6.57;3.13;;;17.20;96.30;;;;;;4953518;29;21086;-78
2022/09/25 13:37:31;;;;;;;6.60;3.63;;;17.20;96.30;;;;;;4954612;28;20489;-78
2022/09/25 13:42:45;;;;;;;4.83;3.83;;;17.30;96.30;;;;;;4954757;29;20422;-78
2022/09/25 13:45:33;;;;;;;3.70;3.40;;;17.30;96.30;;;;;;4955035;28;20490;-78
2022/09/25 13:48:12;;;;;;;4.17;3.77;;;17.20;96.30;;;;;;4954799;28;20414;-78
2022/09/25 13:50:40;;;;;;;3.40;3.10;;;17.20;96.30;;;;;;4955017;28;20550;-78
2022/09/25 13:53:17;;;;;;;5.63;3.73;;;17.10;96.30;;;;;;4956160;28;20497;-79
2022/09/25 13:56:05;;;;;;;6.73;3.50;;;17.00;96.30;;;;;;4946481;29;20441;-78
2022/09/25 13:59:18;;;;;;;5.07;3.50;;;16.80;96.30;;;;;;4950778;29;20458;-78
2022/09/25 14:01:49;;;;;;;5.33;3.63;;;16.50;96.30;;;;;;4955016;29;20433;-79
2022/09/25 14:04:15;;;;;;;8.87;4.07;;;16.00;96.30;;;;;;4957511;28;20403;-79
2022/09/25 14:06:46;;;;;;;4.53;4.10;;;15.80;96.30;;;;;;4958883;28;20458;-79
2022/09/25 14:09:18;;;;;;;11.53;10.33;;;15.60;96.30;;;;;;4957541;29;20403;-79
2022/09/25 14:11:53;;;;;;;11.10;7.37;;;15.50;96.30;;;;;;4957797;28;20434;-79
2022/09/25 14:14:35;;;;;;;5.97;4.30;;;15.40;96.30;;;;;;4948609;29;20421;-79
2022/09/25 14:17:03;;;;;;;8.50;4.20;;;15.00;96.30;;;;;;4946206;28;20399;-79
2022/09/25 14:19:35;;;;;;;27.90;20.30;;;14.70;96.30;;;;;;4938260;29;20527;-79
2022/09/25 14:22:03;;;;;;;9.67;8.73;;;14.40;96.30;;;;;;4936784;28;20444;-80
2022/09/25 14:24:30;;;;;;;6.33;5.70;;;14.20;96.30;;;;;;4938608;29;20991;-81
2022/09/25 14:26:59;;;;;;;13.73;5.33;;;14.00;96.30;;;;;;4937846;29;20465;-76
2022/09/25 14:29:30;;;;;;;15.10;6.13;;;13.80;96.30;;;;;;4935339;29;20420;-76
2022/09/25 14:32:05;;;;;;;21.57;10.10;;;13.70;96.30;;;;;;4936418;29;20451;-76
2022/09/25 14:34:46;;;;;;;8.43;7.53;;;13.30;96.30;;;;;;4937103;29;20406;-75
2022/09/25 14:37:36;;;;;;;7.40;6.30;;;13.00;96.30;;;;;;4937041;29;20415;-76
2022/09/25 14:40:16;;;;;;;11.10;6.70;;;12.80;96.30;;;;;;4936725;29;20408;-76
2022/09/25 14:42:57;;;;;;;11.40;7.77;;;12.60;96.30;;;;;;4936576;29;20872;-76
2022/09/25 14:46:18;;;;;;;8.67;6.27;;;12.40;96.30;;;;;;4936794;29;20404;-75
2022/09/25 14:48:53;;;;;;;6.23;5.20;;;12.10;96.30;;;;;;4914802;29;20427;-76
2022/09/25 14:51:46;;;;;;;9.17;6.83;;;12.00;96.30;;;;;;4936774;29;20514;-75
2022/09/25 14:54:21;;;;;;;6.87;6.20;;;12.00;96.30;;;;;;4933115;29;20420;-75
2022/09/25 14:56:52;;;;;;;7.93;6.80;;;12.00;96.30;;;;;;4936489;29;20931;-75
2022/09/25 14:59:41;;;;;;;7.90;5.57;;;11.90;96.30;;;;;;4937270;29;20518;-76
2022/09/25 15:02:32;;;;;;;6.60;5.80;;;11.80;96.30;;;;;;4954784;28;20440;-75
2022/09/25 15:05:16;;;;;;;7.53;6.83;;;11.80;96.30;;;;;;4955718;28;20470;-77
2022/09/25 15:07:43;;;;;;;7.53;6.87;;;11.80;96.30;;;;;;4952016;28;20438;-75
2022/09/25 15:10:27;;;;;;;11.63;6.90;;;11.80;96.30;;;;;;4954999;28;20888;-74
2022/09/25 15:12:54;;;;;;;9.10;6.60;;;11.90;96.30;;;;;;4960732;28;20410;-75
2022/09/25 15:15:20;;;;;;;7.67;6.87;;;11.90;96.30;;;;;;4964009;28;20422;-75
2022/09/25 15:17:58;;;;;;;8.60;7.40;;;11.80;96.30;;;;;;4942527;28;20440;-75
2022/09/25 15:20:27;;;;;;;7.30;6.40;;;11.70;96.30;;;;;;4957967;28;20419;-76
2022/09/25 15:23:07;;;;;;;5.33;4.93;;;11.60;96.30;;;;;;4960302;28;20418;-74
2022/09/25 15:25:42;;;;;;;4.80;4.40;;;11.60;96.30;;;;;;4973059;28;20434;-76
2022/09/25 15:28:15;;;;;;;4.30;2.87;;;11.50;96.30;;;;;;4949192;29;20433;-74
2022/09/25 15:30:42;;;;;;;4.03;2.87;;;11.30;96.30;;;;;;4954791;28;20443;-74
2022/09/25 15:33:24;;;;;;;2.87;2.67;;;11.20;96.30;;;;;;4954450;28;20418;-73
2022/09/25 15:35:57;;;;;;;5.20;2.93;;;11.10;96.30;;;;;;4958807;28;20424;-75
2022/09/25 15:38:34;;;;;;;4.10;3.33;;;11.10;96.30;;;;;;4957215;28;20542;-75
2022/09/25 15:41:01;;;;;;;3.77;3.37;;;11.00;96.30;;;;;;4954464;28;20440;-75
2022/09/25 15:43:28;;;;;;;3.33;3.03;;;11.00;96.30;;;;;;4955670;28;20418;-75
2022/09/25 15:45:57;;;;;;;6.50;3.33;;;11.00;96.30;;;;;;4939766;28;20417;-73
2022/09/25 15:48:31;;;;;;;8.90;3.60;;;11.00;96.30;;;;;;4953025;28;20419;-74
2022/09/25 15:51:05;;;;;;;10.20;3.30;;;11.10;96.30;;;;;;4954340;28;20524;-73
2022/09/25 15:53:43;;;;;;;4.73;4.33;;;11.10;96.30;;;;;;4948611;28;20415;-73
2022/09/25 15:56:18;;;;;;;4.90;4.40;;;11.20;96.30;;;;;;4945102;28;20423;-74
2022/09/25 15:58:47;;;;;;;5.20;4.60;;;11.20;96.30;;;;;;4947469;28;20604;-77
2022/09/25 16:06:50;;;;;;;6.87;5.27;;;11.30;96.30;;;;;;4945776;28;20446;-76
2022/09/25 16:09:27;;;;;;;7.27;6.33;;;11.30;96.30;;;;;;4948626;28;20458;-77
2022/09/25 16:11:52;;;;;;;14.20;11.60;;;11.40;96.30;;;;;;4950337;28;20213;-77
2022/09/25 16:14:29;;;;;;;15.97;10.37;;;11.40;96.30;;;;;;4945168;28;20420;-77
2022/09/25 16:16:56;;;;;;;7.30;5.00;;;11.40;96.30;;;;;;4916099;29;20156;-77
2022/09/25 16:19:24;;;;;;;8.90;6.30;;;11.40;96.30;;;;;;4919566;29;20562;-77
2022/09/25 16:21:50;;;;;;;10.40;8.83;;;11.50;96.30;;;;;;4934761;29;20435;-77
2022/09/25 16:24:25;;;;;;;14.63;11.60;;;11.60;96.30;;;;;;4933608;29;20449;-77
2022/09/25 16:26:59;;;;;;;10.70;9.27;;;11.70;96.30;;;;;;4933701;29;20423;-76
2022/09/25 16:29:35;;;;;;;8.20;7.33;;;11.70;96.30;;;;;;4933485;29;20969;-76
2022/09/25 16:32:04;;;;;;;15.73;6.47;;;11.70;96.30;;;;;;4934996;29;20863;-76
2022/09/25 16:34:34;;;;;;;7.37;6.67;;;11.70;96.30;;;;;;4935136;29;20510;-78
2022/09/25 16:37:02;;;;;;;8.30;6.10;;;11.80;96.30;;;;;;4935019;29;20396;-78
2022/09/25 16:39:30;;;;;;;5.07;4.67;;;11.80;96.30;;;;;;4933275;29;21010;-79
2022/09/25 16:41:57;;;;;;;17.23;15.53;;;11.70;96.30;;;;;;4935435;29;20982;-79
2022/09/25 16:44:26;;;;;;;13.13;11.63;;;11.60;96.30;;;;;;4935377;29;20459;-79
2022/09/25 16:46:52;;;;;;;15.57;11.20;;;11.60;96.30;;;;;;4935968;29;20528;-79
2022/09/25 16:49:20;;;;;;;11.63;8.50;;;11.50;96.30;;;;;;4936165;29;20502;-80
2022/09/25 16:51:47;;;;;;;11.40;10.20;;;11.50;96.30;;;;;;4936080;29;20234;-80
2022/09/25 16:54:15;;;;;;;9.80;8.80;;;11.50;96.30;;;;;;4935139;29;20999;-80
2022/09/25 16:56:42;;;;;;;8.90;7.20;;;11.40;96.30;;;;;;4935995;29;20415;-79
2022/09/25 16:59:20;;;;;;;8.50;7.50;;;11.30;96.30;;;;;;4934586;29;20547;-79
2022/09/25 17:01:48;;;;;;;7.47;6.03;;;11.30;96.30;;;;;;4935970;29;20498;-81
2022/09/25 17:04:17;;;;;;;7.00;6.40;;;11.20;96.30;;;;;;4935773;29;20534;-77
2022/09/25 17:06:44;;;;;;;8.33;7.50;;;11.10;96.30;;;;;;4935107;29;20574;-77
2022/09/25 17:09:11;;;;;;;6.90;6.30;;;11.20;96.30;;;;;;4933420;29;20494;-77
2022/09/25 17:11:38;;;;;;;6.90;6.30;;;11.10;96.30;;;;;;4933384;28;20458;-80
2022/09/25 17:14:05;;;;;;;19.43;12.67;;;11.10;96.30;;;;;;4935126;29;20431;-78
2022/09/25 17:16:31;;;;;;;14.90;13.50;;;11.00;96.30;;;;;;4934866;29;20774;-77
2022/09/25 17:18:57;;;;;;;8.83;7.93;;;11.00;96.30;;;;;;4935990;29;20808;-78
2022/09/25 17:21:22;;;;;;;7.70;7.00;;;10.90;96.30;;;;;;4962222;28;20509;-78
2022/09/25 17:23:48;;;;;;;7.10;6.40;;;10.90;96.30;;;;;;4934826;29;20176;-78
2022/09/25 17:26:22;;;;;;;10.10;8.20;;;10.80;96.30;;;;;;4941247;29;20186;-77
2022/09/25 17:28:49;;;;;;;10.37;9.30;;;10.80;96.30;;;;;;4957528;28;20229;-79
2022/09/25 17:31:18;;;;;;;10.30;9.30;;;10.60;96.30;;;;;;4923462;28;20458;-77
2022/09/25 17:33:45;;;;;;;10.50;9.47;;;10.60;96.30;;;;;;4932755;29;20462;-80
2022/09/25 17:36:11;;;;;;;9.90;7.60;;;10.50;96.30;;;;;;4954989;29;20446;-77
2022/09/25 17:38:37;;;;;;;13.80;9.43;;;10.40;96.30;;;;;;4964742;28;20999;-77
2022/09/25 17:41:10;;;;;;;9.33;8.40;;;10.40;96.30;;;;;;4938497;29;20803;-77
2022/09/25 17:43:36;;;;;;;9.40;8.40;;;10.40;96.30;;;;;;4932550;29;20415;-79
2022/09/25 17:46:02;;;;;;;14.17;11.80;;;10.50;96.30;;;;;;4925803;29;20932;-76
2022/09/25 17:48:29;;;;;;;15.80;12.03;;;10.50;96.30;;;;;;4918892;29;20208;-77
2022/09/25 17:51:09;;;;;;;12.20;9.73;;;10.40;96.30;;;;;;4918401;29;20348;-77
2022/09/25 17:53:35;;;;;;;10.50;8.30;;;10.40;96.30;;;;;;4937864;29;20450;-79
2022/09/25 17:56:01;;;;;;;11.13;9.07;;;10.40;96.30;;;;;;4937819;29;20478;-77
2022/09/25 17:58:28;;;;;;;10.67;9.67;;;10.30;96.30;;;;;;4937895;29;20207;-77
2022/09/25 18:00:58;;;;;;;10.70;9.60;;;10.20;96.30;;;;;;4935713;29;20246;-77
2022/09/25 18:03:23;;;;;;;7.70;6.90;;;10.20;96.30;;;;;;4935860;29;20411;-78
2022/09/25 18:05:49;;;;;;;6.83;5.17;;;10.10;96.30;;;;;;4930270;29;20443;-81
2022/09/25 18:08:15;;;;;;;7.33;6.63;;;10.10;96.30;;;;;;4915842;29;20180;-78
2022/09/25 18:10:40;;;;;;;6.43;5.93;;;10.10;96.30;;;;;;4918153;29;20563;-78
2022/09/25 18:13:12;;;;;;;6.47;5.87;;;10.10;96.30;;;;;;4918527;29;20188;-78
2022/09/25 18:15:46;;;;;;;7.17;6.57;;;10.20;96.30;;;;;;4918570;29;20169;-78
2022/09/25 18:18:12;;;;;;;6.00;5.50;;;10.20;96.30;;;;;;4918323;29;20444;-79
2022/09/25 18:23:21;;;;;;;7.27;6.57;;;10.10;96.30;;;;;;4918576;29;20195;-77
2022/09/25 18:25:47;;;;;;;7.60;6.90;;;10.10;96.30;;;;;;4918493;29;20448;-78
2022/09/25 18:28:13;;;;;;;7.60;6.90;;;10.20;96.30;;;;;;4916956;29;20188;-79
2022/09/25 18:30:39;;;;;;;7.73;6.90;;;10.20;96.30;;;;;;4918237;29;20211;-77
2022/09/25 18:33:04;;;;;;;7.87;6.97;;;10.20;96.30;;;;;;4918185;29;20420;-78
2022/09/25 18:35:30;;;;;;;8.37;7.57;;;10.20;96.30;;;;;;4916920;29;20193;-77